sensor_id;sensor_type;location;lat;lon;timestamp;pressure;altitude;pressure_sealevel;temperature;humidity
29907;BME280;16776;50.958;10.994;2023-04-27T00:00:11;98762.31;;;4.10;79.75
29907;BME280;16776;50.958;10.994;2023-04-27T00:02:38;98765.69;;;4.09;78.99
29907;BME280;16776;50.958;10.994;2023-04-27T00:05:06;98760.59;;;4.09;79.46
29907;BME280;16776;50.958;10.994;2023-04-27T00:07:34;98759.75;;;4.10;79.18
29907;BME280;16776;50.958;10.994;2023-04-27T00:10:00;98755.53;;;4.08;79.19
29907;BME280;16776;50.958;10.994;2023-04-27T00:12:27;98758.06;;;4.06;78.87
29907;BME280;16776;50.958;10.994;2023-04-27T00:14:53;98756.34;;;4.05;78.77
29907;BME280;16776;50.958;10.994;2023-04-27T00:17:20;98758.88;;;4.04;79.58
29907;BME280;16776;50.958;10.994;2023-04-27T00:19:46;98755.50;;;4.02;79.11
29907;BME280;16776;50.958;10.994;2023-04-27T00:22:13;98756.34;;;4.01;79.62
29907;BME280;16776;50.958;10.994;2023-04-27T00:24:41;98752.13;;;4.01;79.94
29907;BME280;16776;50.958;10.994;2023-04-27T00:27:08;98746.16;;;4.01;79.47
29907;BME280;16776;50.958;10.994;2023-04-27T00:29:40;98751.25;;;4.05;79.39
29907;BME280;16776;50.958;10.994;2023-04-27T00:32:07;98746.19;;;4.02;79.47
29907;BME280;16776;50.958;10.994;2023-04-27T00:34:34;98744.47;;;4.01;79.13
29907;BME280;16776;50.958;10.994;2023-04-27T00:37:00;98754.66;;;4.01;79.78
29907;BME280;16776;50.958;10.994;2023-04-27T00:39:27;98750.41;;;4.02;79.13
29907;BME280;16776;50.958;10.994;2023-04-27T00:41:55;98746.16;;;4.05;79.80
29907;BME280;16776;50.958;10.994;2023-04-27T00:44:22;98748.69;;;4.04;79.25
29907;BME280;16776;50.958;10.994;2023-04-27T00:46:49;98744.47;;;4.04;79.87
29907;BME280;16776;50.958;10.994;2023-04-27T00:49:16;98746.16;;;4.05;79.51
29907;BME280;16776;50.958;10.994;2023-04-27T00:51:43;98743.59;;;4.04;79.52
29907;BME280;16776;50.958;10.994;2023-04-27T00:54:09;98731.69;;;3.97;79.57
29907;BME280;16776;50.958;10.994;2023-04-27T00:56:36;98742.75;;;4.03;79.31
29907;BME280;16776;50.958;10.994;2023-04-27T00:59:04;98741.06;;;4.04;79.51
29907;BME280;16776;50.958;10.994;2023-04-27T01:01:31;98748.72;;;4.02;79.56
29907;BME280;16776;50.958;10.994;2023-04-27T01:03:57;98743.63;;;4.01;79.80
29907;BME280;16776;50.958;10.994;2023-04-27T01:06:24;98742.75;;;4.00;79.52
29907;BME280;16776;50.958;10.994;2023-04-27T01:08:52;98743.59;;;3.99;80.02
29907;BME280;16776;50.958;10.994;2023-04-27T01:11:18;98745.31;;;4.00;79.57
29907;BME280;16776;50.958;10.994;2023-04-27T01:13:45;98747.03;;;4.01;80.38
29907;BME280;16776;50.958;10.994;2023-04-27T01:16:16;98746.16;;;4.05;80.22
29907;BME280;16776;50.958;10.994;2023-04-27T01:18:42;98746.16;;;4.01;80.38
29907;BME280;16776;50.958;10.994;2023-04-27T01:21:09;98743.63;;;4.01;80.23
29907;BME280;16776;50.958;10.994;2023-04-27T01:23:38;98736.81;;;4.03;80.21
29907;BME280;16776;50.958;10.994;2023-04-27T01:26:04;98741.06;;;3.99;79.66
29907;BME280;16776;50.958;10.994;2023-04-27T01:28:31;98741.06;;;3.99;80.78
29907;BME280;16776;50.958;10.994;2023-04-27T01:30:57;98739.34;;;3.98;79.76
29907;BME280;16776;50.958;10.994;2023-04-27T01:33:24;98747.00;;;3.98;79.72
29907;BME280;16776;50.958;10.994;2023-04-27T01:35:50;98744.44;;;3.97;80.59
29907;BME280;16776;50.958;10.994;2023-04-27T01:38:17;98741.88;;;3.97;80.28
29907;BME280;16776;50.958;10.994;2023-04-27T01:40:45;98746.16;;;3.98;80.22
29907;BME280;16776;50.958;10.994;2023-04-27T01:43:11;98744.44;;;3.97;80.94
29907;BME280;16776;50.958;10.994;2023-04-27T01:45:38;98746.16;;;3.99;80.73
29907;BME280;16776;50.958;10.994;2023-04-27T01:48:05;98742.75;;;4.00;80.26
29907;BME280;16776;50.958;10.994;2023-04-27T01:50:31;98754.63;;;4.03;80.83
29907;BME280;16776;50.958;10.994;2023-04-27T01:52:58;98755.50;;;4.05;80.47
29907;BME280;16776;50.958;10.994;2023-04-27T01:55:24;98752.13;;;4.07;80.69
29907;BME280;16776;50.958;10.994;2023-04-27T01:57:52;98752.13;;;4.09;80.81
29907;BME280;16776;50.958;10.994;2023-04-27T02:00:19;98751.28;;;4.08;81.04
29907;BME280;16776;50.958;10.994;2023-04-27T02:02:45;98756.38;;;4.08;80.42
29907;BME280;16776;50.958;10.994;2023-04-27T02:05:12;98761.47;;;4.08;80.82
29907;BME280;16776;50.958;10.994;2023-04-27T02:07:38;98765.72;;;4.08;81.21
29907;BME280;16776;50.958;10.994;2023-04-27T02:10:06;98767.41;;;4.10;80.78
29907;BME280;16776;50.958;10.994;2023-04-27T02:12:32;98764.00;;;4.11;80.96
29907;BME280;16776;50.958;10.994;2023-04-27T02:15:00;98758.91;;;4.16;81.21
29907;BME280;16776;50.958;10.994;2023-04-27T02:17:28;98769.94;;;4.16;81.44
29907;BME280;16776;50.958;10.994;2023-04-27T02:19:55;98773.38;;;4.18;81.44
29907;BME280;16776;50.958;10.994;2023-04-27T02:22:22;98773.38;;;4.21;80.71
29907;BME280;16776;50.958;10.994;2023-04-27T02:24:48;98779.31;;;4.22;80.82
29907;BME280;16776;50.958;10.994;2023-04-27T02:27:15;98772.50;;;4.22;81.18
29907;BME280;16776;50.958;10.994;2023-04-27T02:29:41;98781.84;;;4.23;80.75
29907;BME280;16776;50.958;10.994;2023-04-27T02:32:09;98780.16;;;4.22;80.62
29907;BME280;16776;50.958;10.994;2023-04-27T02:34:36;98784.41;;;4.19;80.56
29907;BME280;16776;50.958;10.994;2023-04-27T02:37:02;98790.34;;;4.18;80.32
29907;BME280;16776;50.958;10.994;2023-04-27T02:39:29;98781.84;;;4.16;80.78
29907;BME280;16776;50.958;10.994;2023-04-27T02:41:55;98792.06;;;4.14;80.71
29907;BME280;16776;50.958;10.994;2023-04-27T02:44:22;98784.41;;;4.14;81.14
29907;BME280;16776;50.958;10.994;2023-04-27T02:46:49;98796.31;;;4.14;81.31
29907;BME280;16776;50.958;10.994;2023-04-27T02:49:16;98798.84;;;4.14;81.31
29907;BME280;16776;50.958;10.994;2023-04-27T02:51:43;98800.53;;;4.12;81.13
29907;BME280;16776;50.958;10.994;2023-04-27T02:54:10;98794.59;;;4.13;81.30
29907;BME280;16776;50.958;10.994;2023-04-27T02:56:36;98800.56;;;4.13;81.40
29907;BME280;16776;50.958;10.994;2023-04-27T02:59:03;98803.94;;;4.12;81.43
29907;BME280;16776;50.958;10.994;2023-04-27T03:01:29;98803.09;;;4.12;80.99
29907;BME280;16776;50.958;10.994;2023-04-27T03:03:56;98810.72;;;4.10;81.21
29907;BME280;16776;50.958;10.994;2023-04-27T03:06:24;98803.09;;;4.12;81.15
29907;BME280;16776;50.958;10.994;2023-04-27T03:08:51;98811.59;;;4.08;80.86
29907;BME280;16776;50.958;10.994;2023-04-27T03:11:18;98807.34;;;4.07;81.57
29907;BME280;16776;50.958;10.994;2023-04-27T03:13:44;98806.47;;;4.03;81.79
29907;BME280;16776;50.958;10.994;2023-04-27T03:16:11;98811.56;;;4.02;81.55
29907;BME280;16776;50.958;10.994;2023-04-27T03:18:38;98804.75;;;3.95;81.15
29907;BME280;16776;50.958;10.994;2023-04-27T03:21:06;98814.94;;;3.99;81.67
29907;BME280;16776;50.958;10.994;2023-04-27T03:23:34;98818.34;;;3.98;81.10
29907;BME280;16776;50.958;10.994;2023-04-27T03:26:04;98812.41;;;3.99;81.36
29907;BME280;16776;50.958;10.994;2023-04-27T03:28:32;98809.00;;;3.94;81.61
29907;BME280;16776;50.958;10.994;2023-04-27T03:30:58;98825.13;;;3.93;81.36
29907;BME280;16776;50.958;10.994;2023-04-27T03:33:25;98830.22;;;3.92;81.91
29907;BME280;16776;50.958;10.994;2023-04-27T03:35:55;98828.53;;;3.94;81.93
29907;BME280;16776;50.958;10.994;2023-04-27T03:38:22;98827.66;;;3.87;81.76
29907;BME280;16776;50.958;10.994;2023-04-27T03:40:50;98825.09;;;3.87;81.54
29907;BME280;16776;50.958;10.994;2023-04-27T03:43:17;98827.63;;;3.84;82.26
29907;BME280;16776;50.958;10.994;2023-04-27T03:45:44;98817.44;;;3.76;81.62
29907;BME280;16776;50.958;10.994;2023-04-27T03:48:14;98831.91;;;3.82;81.66
29907;BME280;16776;50.958;10.994;2023-04-27T03:50:41;98824.22;;;3.74;82.14
29907;BME280;16776;50.958;10.994;2023-04-27T03:53:07;98829.34;;;3.80;82.05
29907;BME280;16776;50.958;10.994;2023-04-27T03:55:37;98822.53;;;3.81;82.65
29907;BME280;16776;50.958;10.994;2023-04-27T03:58:05;98830.16;;;3.78;82.66
29907;BME280;16776;50.958;10.994;2023-04-27T04:00:31;98831.00;;;3.77;82.35
29907;BME280;16776;50.958;10.994;2023-04-27T04:02:58;98834.41;;;3.76;82.39
29907;BME280;16776;50.958;10.994;2023-04-27T04:05:25;98832.72;;;3.75;83.12
29907;BME280;16776;50.958;10.994;2023-04-27T04:07:51;98836.97;;;3.74;81.91
29907;BME280;16776;50.958;10.994;2023-04-27T04:10:18;98838.66;;;3.74;82.39
29907;BME280;16776;50.958;10.994;2023-04-27T04:12:45;98831.00;;;3.74;82.67
29907;BME280;16776;50.958;10.994;2023-04-27T04:15:13;98836.97;;;3.76;82.41
29907;BME280;16776;50.958;10.994;2023-04-27T04:17:42;98829.31;;;3.73;82.27
29907;BME280;16776;50.958;10.994;2023-04-27T04:20:10;98826.75;;;3.73;82.39
29907;BME280;16776;50.958;10.994;2023-04-27T04:22:37;98821.66;;;3.73;82.73
29907;BME280;16776;50.958;10.994;2023-04-27T04:25:04;98834.41;;;3.73;84.44
29907;BME280;16776;50.958;10.994;2023-04-27T04:27:31;98840.38;;;3.79;86.60
29907;BME280;16776;50.958;10.994;2023-04-27T04:30:00;98833.63;;;3.97;87.29
29907;BME280;16776;50.958;10.994;2023-04-27T04:32:31;98833.69;;;4.22;86.12
29907;BME280;16776;50.958;10.994;2023-04-27T04:34:58;98834.59;;;4.40;85.81
29907;BME280;16776;50.958;10.994;2023-04-27T04:37:26;98836.31;;;4.53;84.63
29907;BME280;16776;50.958;10.994;2023-04-27T04:39:53;98832.06;;;4.59;84.40
29907;BME280;16776;50.958;10.994;2023-04-27T04:42:19;98835.44;;;4.61;84.19
29907;BME280;16776;50.958;10.994;2023-04-27T04:44:46;98831.19;;;4.59;83.59
29907;BME280;16776;50.958;10.994;2023-04-27T04:47:12;98837.16;;;4.58;83.86
29907;BME280;16776;50.958;10.994;2023-04-27T04:49:40;98843.94;;;4.57;83.85
29907;BME280;16776;50.958;10.994;2023-04-27T04:52:07;98837.16;;;4.53;83.88
29907;BME280;16776;50.958;10.994;2023-04-27T04:54:33;98834.59;;;4.52;83.60
29907;BME280;16776;50.958;10.994;2023-04-27T04:57:00;98834.59;;;4.52;83.50
29907;BME280;16776;50.958;10.994;2023-04-27T04:59:27;98837.13;;;4.50;83.53
29907;BME280;16776;50.958;10.994;2023-04-27T05:01:54;98834.59;;;4.50;83.54
29907;BME280;16776;50.958;10.994;2023-04-27T05:04:21;98829.47;;;4.49;83.68
29907;BME280;16776;50.958;10.994;2023-04-27T05:06:48;98827.78;;;4.51;83.53
29907;BME280;16776;50.958;10.994;2023-04-27T05:09:15;98837.97;;;4.48;83.67
29907;BME280;16776;50.958;10.994;2023-04-27T05:11:42;98836.28;;;4.45;83.79
29907;BME280;16776;50.958;10.994;2023-04-27T05:14:08;98832.88;;;4.45;84.22
29907;BME280;16776;50.958;10.994;2023-04-27T05:16:35;98823.53;;;4.45;84.16
29907;BME280;16776;50.958;10.994;2023-04-27T05:19:01;98825.25;;;4.46;84.44
29907;BME280;16776;50.958;10.994;2023-04-27T05:21:30;98825.22;;;4.48;83.81
29907;BME280;16776;50.958;10.994;2023-04-27T05:23:58;98822.69;;;4.51;84.14
29907;BME280;16776;50.958;10.994;2023-04-27T05:26:24;98809.94;;;4.51;83.75
29907;BME280;16776;50.958;10.994;2023-04-27T05:28:51;98830.34;;;4.52;84.45
29907;BME280;16776;50.958;10.994;2023-04-27T05:31:17;98832.88;;;4.54;84.31
29907;BME280;16776;50.958;10.994;2023-04-27T05:33:44;98838.00;;;4.57;84.62
29907;BME280;16776;50.958;10.994;2023-04-27T05:36:11;98842.25;;;4.62;84.81
29907;BME280;16776;50.958;10.994;2023-04-27T05:38:37;98845.66;;;4.69;84.78
29907;BME280;16776;50.958;10.994;2023-04-27T05:41:05;98845.66;;;4.77;84.92
29907;BME280;16776;50.958;10.994;2023-04-27T05:43:32;98855.00;;;4.81;84.52
29907;BME280;16776;50.958;10.994;2023-04-27T05:46:02;98855.03;;;4.85;84.67
29907;BME280;16776;50.958;10.994;2023-04-27T05:48:28;98856.72;;;4.89;84.44
29907;BME280;16776;50.958;10.994;2023-04-27T05:50:58;98857.56;;;4.96;84.58
29907;BME280;16776;50.958;10.994;2023-04-27T05:53:25;98856.69;;;4.94;84.24
29907;BME280;16776;50.958;10.994;2023-04-27T05:55:52;98860.97;;;4.96;84.52
29907;BME280;16776;50.958;10.994;2023-04-27T05:58:20;98848.22;;;4.98;85.34
29907;BME280;16776;50.958;10.994;2023-04-27T06:00:47;98866.91;;;5.11;85.67
29907;BME280;16776;50.958;10.994;2023-04-27T06:03:14;98872.03;;;5.21;85.45
29907;BME280;16776;50.958;10.994;2023-04-27T06:05:40;98868.59;;;5.33;85.42
29907;BME280;16776;50.958;10.994;2023-04-27T06:08:07;98871.97;;;5.44;85.28
29907;BME280;16776;50.958;10.994;2023-04-27T06:10:37;98860.09;;;5.43;84.62
29907;BME280;16776;50.958;10.994;2023-04-27T06:13:03;98868.53;;;5.57;84.70
29907;BME280;16776;50.958;10.994;2023-04-27T06:15:31;98871.94;;;5.61;84.57
29907;BME280;16776;50.958;10.994;2023-04-27T06:17:58;98876.22;;;5.62;84.25
29907;BME280;16776;50.958;10.994;2023-04-27T06:20:24;98885.56;;;5.64;84.49
29907;BME280;16776;50.958;10.994;2023-04-27T06:22:51;98885.56;;;5.67;85.27
29907;BME280;16776;50.958;10.994;2023-04-27T06:25:17;98878.72;;;5.72;84.65
29907;BME280;16776;50.958;10.994;2023-04-27T06:27:44;98880.44;;;5.75;84.93
29907;BME280;16776;50.958;10.994;2023-04-27T06:30:12;98879.56;;;5.77;84.48
29907;BME280;16776;50.958;10.994;2023-04-27T06:32:40;98879.53;;;5.82;84.96
29907;BME280;16776;50.958;10.994;2023-04-27T06:35:07;98876.13;;;5.83;85.18
29907;BME280;16776;50.958;10.994;2023-04-27T06:37:33;98884.63;;;5.87;84.47
29907;BME280;16776;50.958;10.994;2023-04-27T06:40:00;98871.84;;;5.90;85.02
29907;BME280;16776;50.958;10.994;2023-04-27T06:42:30;98867.53;;;5.95;84.18
29907;BME280;16776;50.958;10.994;2023-04-27T06:44:57;98865.00;;;5.96;84.61
29907;BME280;16776;50.958;10.994;2023-04-27T06:47:23;98871.81;;;5.99;84.63
29907;BME280;16776;50.958;10.994;2023-04-27T06:49:54;98890.53;;;6.07;84.53
29907;BME280;16776;50.958;10.994;2023-04-27T06:52:21;98895.63;;;6.13;84.86
29907;BME280;16776;50.958;10.994;2023-04-27T06:54:47;98893.00;;;6.25;85.68
29907;BME280;16776;50.958;10.994;2023-04-27T06:57:14;98881.00;;;6.38;85.11
29907;BME280;16776;50.958;10.994;2023-04-27T06:59:40;98876.66;;;6.50;85.95
29907;BME280;16776;50.958;10.994;2023-04-27T07:02:07;98884.25;;;6.62;85.61
29907;BME280;16776;50.958;10.994;2023-04-27T07:04:34;98876.50;;;6.78;85.35
29907;BME280;16776;50.958;10.994;2023-04-27T07:07:02;98885.75;;;6.94;85.40
29907;BME280;16776;50.958;10.994;2023-04-27T07:09:28;98887.34;;;7.07;85.14
29907;BME280;16776;50.958;10.994;2023-04-27T07:11:55;98882.94;;;7.21;84.93
29907;BME280;16776;50.958;10.994;2023-04-27T07:14:23;98884.50;;;7.37;85.15
29907;BME280;16776;50.958;10.994;2023-04-27T07:16:50;98882.59;;;7.55;85.92
29907;BME280;16776;50.958;10.994;2023-04-27T07:19:16;98881.53;;;7.75;86.09
29907;BME280;16776;50.958;10.994;2023-04-27T07:21:43;98888.97;;;7.95;85.48
29907;BME280;16776;50.958;10.994;2023-04-27T07:24:11;98893.03;;;8.16;85.86
29907;BME280;16776;50.958;10.994;2023-04-27T07:26:37;98887.69;;;8.33;85.00
29907;BME280;16776;50.958;10.994;2023-04-27T07:29:04;98879.72;;;8.51;84.68
29907;BME280;16776;50.958;10.994;2023-04-27T07:31:31;98887.19;;;8.69;84.63
29907;BME280;16776;50.958;10.994;2023-04-27T07:33:58;98886.94;;;8.83;84.70
29907;BME280;16776;50.958;10.994;2023-04-27T07:36:25;98886.72;;;8.96;84.33
29907;BME280;16776;50.958;10.994;2023-04-27T07:38:52;98879.66;;;9.11;84.04
29907;BME280;16776;50.958;10.994;2023-04-27T07:41:21;98888.81;;;9.27;84.57
29907;BME280;16776;50.958;10.994;2023-04-27T07:43:48;98886.06;;;9.39;84.37
29907;BME280;16776;50.958;10.994;2023-04-27T07:46:16;98890.09;;;9.52;84.26
29907;BME280;16776;50.958;10.994;2023-04-27T07:48:43;98880.38;;;9.66;83.84
29907;BME280;16776;50.958;10.994;2023-04-27T07:51:09;98890.41;;;9.80;83.71
29907;BME280;16776;50.958;10.994;2023-04-27T07:53:40;98895.31;;;9.92;83.35
29907;BME280;16776;50.958;10.994;2023-04-27T07:56:06;98895.13;;;10.01;83.20
29907;BME280;16776;50.958;10.994;2023-04-27T07:58:36;98896.69;;;10.10;83.32
29907;BME280;16776;50.958;10.994;2023-04-27T08:01:03;98888.00;;;10.15;83.13
29907;BME280;16776;50.958;10.994;2023-04-27T08:03:32;98895.38;;;10.31;83.55
29907;BME280;16776;50.958;10.994;2023-04-27T08:06:09;98883.91;;;10.44;83.60
29907;BME280;16776;50.958;10.994;2023-04-27T08:08:37;98890.38;;;10.63;83.87
29907;BME280;16776;50.958;10.994;2023-04-27T08:11:04;98893.34;;;10.83;84.21
29907;BME280;16776;50.958;10.994;2023-04-27T08:13:35;98886.75;;;11.07;83.87
29907;BME280;16776;50.958;10.994;2023-04-27T08:16:02;98885.50;;;11.23;83.70
29907;BME280;16776;50.958;10.994;2023-04-27T08:18:29;98894.31;;;11.49;84.00
29907;BME280;16776;50.958;10.994;2023-04-27T08:20:55;98888.66;;;11.68;83.42
29907;BME280;16776;50.958;10.994;2023-04-27T08:23:25;98890.59;;;11.91;83.46
29907;BME280;16776;50.958;10.994;2023-04-27T08:25:52;98885.88;;;12.05;83.50
29907;BME280;16776;50.958;10.994;2023-04-27T08:28:19;98900.84;;;12.23;82.35
29907;BME280;16776;50.958;10.994;2023-04-27T08:30:47;98895.25;;;12.39;82.63
29907;BME280;16776;50.958;10.994;2023-04-27T08:33:14;98895.69;;;12.53;82.89
29907;BME280;16776;50.958;10.994;2023-04-27T08:35:40;98893.50;;;12.69;82.52
29907;BME280;16776;50.958;10.994;2023-04-27T08:38:07;98899.88;;;12.85;82.42
29907;BME280;16776;50.958;10.994;2023-04-27T08:40:33;98898.53;;;12.99;82.05
29907;BME280;16776;50.958;10.994;2023-04-27T08:43:00;98888.59;;;13.14;81.98
29907;BME280;16776;50.958;10.994;2023-04-27T08:45:26;98885.53;;;13.27;81.85
29907;BME280;16776;50.958;10.994;2023-04-27T08:47:55;98889.38;;;13.42;81.77
29907;BME280;16776;50.958;10.994;2023-04-27T08:50:21;98895.84;;;13.54;81.47
29907;BME280;16776;50.958;10.994;2023-04-27T08:52:49;98878.06;;;13.69;81.59
29907;BME280;16776;50.958;10.994;2023-04-27T08:55:16;98883.59;;;13.83;81.54
29907;BME280;16776;50.958;10.994;2023-04-27T08:57:53;98883.69;;;14.05;81.08
29907;BME280;16776;50.958;10.994;2023-04-27T09:00:20;98873.19;;;14.08;80.56
29907;BME280;16776;50.958;10.994;2023-04-27T09:02:47;98883.28;;;14.16;80.31
29907;BME280;16776;50.958;10.994;2023-04-27T09:05:16;98871.78;;;14.23;80.13
29907;BME280;16776;50.958;10.994;2023-04-27T09:07:54;98870.09;;;14.22;80.31
29907;BME280;16776;50.958;10.994;2023-04-27T09:10:24;98868.31;;;14.24;80.20
29907;BME280;16776;50.958;10.994;2023-04-27T09:12:54;98871.50;;;14.31;80.61
29907;BME280;16776;50.958;10.994;2023-04-27T09:15:21;98877.34;;;14.36;79.77
29907;BME280;16776;50.958;10.994;2023-04-27T09:17:52;98870.09;;;14.45;79.78
29907;BME280;16776;50.958;10.994;2023-04-27T09:20:21;98870.03;;;14.47;80.10
29907;BME280;16776;50.958;10.994;2023-04-27T09:22:49;98869.88;;;14.51;79.19
29907;BME280;16776;50.958;10.994;2023-04-27T09:25:27;98860.88;;;14.60;79.13
29907;BME280;16776;50.958;10.994;2023-04-27T09:27:55;98863.75;;;14.52;79.57
29907;BME280;16776;50.958;10.994;2023-04-27T09:30:22;98857.53;;;14.58;79.68
29907;BME280;16776;50.958;10.994;2023-04-27T09:32:53;98860.38;;;14.72;79.41
29907;BME280;16776;50.958;10.994;2023-04-27T09:35:23;98863.47;;;14.82;79.47
29907;BME280;16776;50.958;10.994;2023-04-27T09:37:53;98848.50;;;14.88;79.19
29907;BME280;16776;50.958;10.994;2023-04-27T09:40:21;98849.91;;;14.97;78.91
29907;BME280;16776;50.958;10.994;2023-04-27T09:42:51;98852.88;;;15.08;79.03
29907;BME280;16776;50.958;10.994;2023-04-27T09:45:18;98856.91;;;15.15;79.01
29907;BME280;16776;50.958;10.994;2023-04-27T09:47:45;98850.56;;;15.22;78.28
29907;BME280;16776;50.958;10.994;2023-04-27T09:50:13;98855.66;;;15.24;78.03
29907;BME280;16776;50.958;10.994;2023-04-27T09:52:44;98850.41;;;15.25;77.80
29907;BME280;16776;50.958;10.994;2023-04-27T09:55:15;98851.28;;;15.26;78.41
29907;BME280;16776;50.958;10.994;2023-04-27T09:57:50;98835.50;;;15.30;78.19
29907;BME280;16776;50.958;10.994;2023-04-27T10:00:25;98840.53;;;15.35;78.18
29907;BME280;16776;50.958;10.994;2023-04-27T10:03:06;98830.00;;;15.38;77.84
29907;BME280;16776;50.958;10.994;2023-04-27T10:05:41;98836.84;;;15.40;77.76
29907;BME280;16776;50.958;10.994;2023-04-27T10:08:14;98832.56;;;15.39;78.13
29907;BME280;16776;50.958;10.994;2023-04-27T10:10:42;98832.34;;;15.44;77.47
29907;BME280;16776;50.958;10.994;2023-04-27T10:13:19;98828.38;;;15.56;78.26
29907;BME280;16776;50.958;10.994;2023-04-27T10:15:47;98828.25;;;15.38;76.26
29907;BME280;16776;50.958;10.994;2023-04-27T10:18:24;98834.50;;;15.34;77.08
29907;BME280;16776;50.958;10.994;2023-04-27T10:20:51;98835.16;;;15.18;77.39
29907;BME280;16776;50.958;10.994;2023-04-27T10:23:23;98820.19;;;15.24;77.61
29907;BME280;16776;50.958;10.994;2023-04-27T10:25:50;98829.03;;;15.20;77.58
29907;BME280;16776;50.958;10.994;2023-04-27T10:28:17;98828.13;;;15.21;76.73
29907;BME280;16776;50.958;10.994;2023-04-27T10:30:46;98828.13;;;15.21;77.07
29907;BME280;16776;50.958;10.994;2023-04-27T10:33:15;98840.44;;;15.16;76.78
29907;BME280;16776;50.958;10.994;2023-04-27T10:35:44;98840.88;;;15.06;76.66
29907;BME280;16776;50.958;10.994;2023-04-27T10:38:18;98832.19;;;15.07;76.49
29907;BME280;16776;50.958;10.994;2023-04-27T10:40:55;98835.00;;;15.02;75.70
29907;BME280;16776;50.958;10.994;2023-04-27T10:43:27;98832.75;;;14.93;76.64
29907;BME280;16776;50.958;10.994;2023-04-27T10:45:54;98825.88;;;14.92;76.63
29907;BME280;16776;50.958;10.994;2023-04-27T10:48:21;98830.09;;;14.94;76.94
29907;BME280;16776;50.958;10.994;2023-04-27T10:50:49;98834.19;;;15.00;76.71
29907;BME280;16776;50.958;10.994;2023-04-27T10:53:16;98828.91;;;15.03;76.75
29907;BME280;16776;50.958;10.994;2023-04-27T10:55:43;98824.28;;;15.10;76.81
29907;BME280;16776;50.958;10.994;2023-04-27T10:58:12;98823.03;;;15.18;76.28
29907;BME280;16776;50.958;10.994;2023-04-27T11:00:39;98819.44;;;15.22;76.62
29907;BME280;16776;50.958;10.994;2023-04-27T11:03:11;98815.72;;;15.28;76.37
29907;BME280;16776;50.958;10.994;2023-04-27T11:05:38;98820.81;;;15.29;76.14
29907;BME280;16776;50.958;10.994;2023-04-27T11:08:06;98817.25;;;15.33;76.65
29907;BME280;16776;50.958;10.994;2023-04-27T11:10:33;98817.81;;;15.40;76.23
29907;BME280;16776;50.958;10.994;2023-04-27T11:13:07;98811.13;;;15.55;76.16
29907;BME280;16776;50.958;10.994;2023-04-27T11:15:48;98809.91;;;15.62;76.40
29907;BME280;16776;50.958;10.994;2023-04-27T11:18:16;98813.72;;;15.55;76.31
29907;BME280;16776;50.958;10.994;2023-04-27T11:20:43;98811.03;;;15.56;76.10
29907;BME280;16776;50.958;10.994;2023-04-27T11:23:10;98804.09;;;15.57;76.34
29907;BME280;16776;50.958;10.994;2023-04-27T11:25:47;98814.38;;;15.60;76.07
29907;BME280;16776;50.958;10.994;2023-04-27T11:28:17;98787.94;;;15.50;76.13
29907;BME280;16776;50.958;10.994;2023-04-27T11:30:43;98813.47;;;15.61;75.15
29907;BME280;16776;50.958;10.994;2023-04-27T11:33:11;98810.13;;;15.57;75.13
29907;BME280;16776;50.958;10.994;2023-04-27T11:35:38;98816.72;;;15.46;75.42
29907;BME280;16776;50.958;10.994;2023-04-27T11:38:14;98813.22;;;15.47;75.32
29907;BME280;16776;50.958;10.994;2023-04-27T11:40:41;98809.47;;;15.33;75.76
29907;BME280;16776;50.958;10.994;2023-04-27T11:43:11;98811.84;;;15.38;75.98
29907;BME280;16776;50.958;10.994;2023-04-27T11:45:40;98812.69;;;15.38;75.69
29907;BME280;16776;50.958;10.994;2023-04-27T11:48:15;98810.94;;;15.39;75.56
29907;BME280;16776;50.958;10.994;2023-04-27T11:50:45;98813.53;;;15.39;75.62
29907;BME280;16776;50.958;10.994;2023-04-27T11:53:15;98808.13;;;15.44;76.65
29907;BME280;16776;50.958;10.994;2023-04-27T11:55:41;98811.91;;;15.36;76.46
29907;BME280;16776;50.958;10.994;2023-04-27T11:58:20;98813.72;;;15.55;76.50
29907;BME280;16776;50.958;10.994;2023-04-27T12:00:46;98814.53;;;15.55;76.46
29907;BME280;16776;50.958;10.994;2023-04-27T12:03:14;98816.69;;;15.66;76.44
29907;BME280;16776;50.958;10.994;2023-04-27T12:05:46;98812.34;;;15.85;76.84
29907;BME280;16776;50.958;10.994;2023-04-27T12:08:14;98815.53;;;15.92;76.64
29907;BME280;16776;50.958;10.994;2023-04-27T12:10:41;98808.06;;;16.03;76.31
29907;BME280;16776;50.958;10.994;2023-04-27T12:13:08;98793.72;;;16.13;76.09
29907;BME280;16776;50.958;10.994;2023-04-27T12:15:34;98800.28;;;16.22;76.19
29907;BME280;16776;50.958;10.994;2023-04-27T12:18:01;98798.19;;;16.30;75.98
29907;BME280;16776;50.958;10.994;2023-04-27T12:20:31;98801.94;;;16.41;76.12
29907;BME280;16776;50.958;10.994;2023-04-27T12:22:58;98801.81;;;16.44;75.98
29907;BME280;16776;50.958;10.994;2023-04-27T12:25:24;98797.25;;;16.49;75.95
29907;BME280;16776;50.958;10.994;2023-04-27T12:27:51;98791.75;;;16.55;76.04
29907;BME280;16776;50.958;10.994;2023-04-27T12:30:18;98793.13;;;16.63;76.15
29907;BME280;16776;50.958;10.994;2023-04-27T12:32:45;98799.78;;;16.68;76.23
29907;BME280;16776;50.958;10.994;2023-04-27T12:35:12;98800.25;;;16.76;76.11
29907;BME280;16776;50.958;10.994;2023-04-27T12:37:40;98792.91;;;16.84;76.10
29907;BME280;16776;50.958;10.994;2023-04-27T12:40:08;98789.25;;;16.88;76.02
29907;BME280;16776;50.958;10.994;2023-04-27T12:42:35;98785.69;;;16.89;75.68
29907;BME280;16776;50.958;10.994;2023-04-27T12:45:01;98776.78;;;16.95;75.83
29907;BME280;16776;50.958;10.994;2023-04-27T12:47:32;98778.94;;;17.04;75.81
29907;BME280;16776;50.958;10.994;2023-04-27T12:49:59;98780.94;;;16.99;75.30
29907;BME280;16776;50.958;10.994;2023-04-27T12:52:26;98772.44;;;16.95;75.21
29907;BME280;16776;50.958;10.994;2023-04-27T12:54:54;98772.19;;;17.00;75.00
29907;BME280;16776;50.958;10.994;2023-04-27T12:57:23;98766.38;;;16.95;75.25